Time;durP1;ratioP1;P1;durP2;ratioP2;P2;SDS_P1;SDS_P2;PMS_P1;PMS_P2;Temp;Humidity;BMP_temperature;BMP_pressure;BME280_temperature;BME280_humidity;BME280_pressure;Samples;Min_cycle;Max_cycle;Signal;HPM_P1;HPM_P2
2023/01/05 00:00:20;;;;;;;0.20;0.20;;;;;;;;;;5031737;28;20084;-72
2023/01/05 00:02:46;;;;;;;4.35;1.70;;;;;;;;;;5031836;28;20025;-71
2023/01/05 00:05:11;;;;;;;0.50;0.50;;;;;;;;;;5013984;28;20342;-71
2023/01/05 00:07:37;;;;;;;0.80;0.80;;;;;;;;;;5032085;28;20025;-71
2023/01/05 00:10:02;;;;;;;4.20;3.90;;;;;;;;;;5031235;28;20030;-71
2023/01/05 00:23:23;;;;;;;2.85;2.72;;;;;;;;;;5034802;28;20029;-71
2023/01/05 00:25:49;;;;;;;15.52;6.13;;;;;;;;;;5035003;28;20112;-72
2023/01/05 00:28:14;;;;;;;0.20;0.20;;;;;;;;;;5017352;28;20014;-71
2023/01/05 00:30:42;;;;;;;0.30;0.30;;;;;;;;;;5035419;28;20037;-71
2023/01/05 00:33:08;;;;;;;0.28;0.28;;;;;;;;;;5034088;28;20025;-71
2023/01/05 00:35:34;;;;;;;4.32;3.97;;;;;;;;;;5017274;28;20116;-72
2023/01/05 00:37:59;;;;;;;4.53;4.25;;;;;;;;;;5034973;28;20179;-71
2023/01/05 00:40:26;;;;;;;0.13;0.13;;;;;;;;;;5034761;28;20048;-71
2023/01/05 00:42:51;;;;;;;1.10;1.08;;;;;;;;;;5035079;28;20030;-71
2023/01/05 00:45:17;;;;;;;3.15;2.95;;;;;;;;;;5017226;28;20476;-71
2023/01/05 00:47:43;;;;;;;0.52;0.52;;;;;;;;;;5033669;28;20441;-71
2023/01/05 00:50:10;;;;;;;0.60;0.60;;;;;;;;;;5034588;28;20124;-72
2023/01/05 00:52:35;;;;;;;1.98;1.60;;;;;;;;;;5034781;28;20033;-71
2023/01/05 00:55:04;;;;;;;0.65;0.57;;;;;;;;;;5032539;28;20016;-71
2023/01/05 00:57:29;;;;;;;1.45;1.35;;;;;;;;;;5054673;28;20099;-72
2023/01/05 00:59:55;;;;;;;0.35;0.35;;;;;;;;;;5054667;28;20449;-71
2023/01/05 01:02:20;;;;;;;4.85;4.45;;;;;;;;;;5054565;28;20017;-71
2023/01/05 01:04:46;;;;;;;1.95;1.80;;;;;;;;;;5036365;28;20071;-71
2023/01/05 01:07:11;;;;;;;0.43;0.32;;;;;;;;;;5053702;28;20045;-71
2023/01/05 01:09:37;;;;;;;1.75;1.70;;;;;;;;;;5036377;28;20123;-70
2023/01/05 01:12:02;;;;;;;0.10;0.10;;;;;;;;;;5036253;28;20025;-70
2023/01/05 01:14:28;;;;;;;0.20;0.20;;;;;;;;;;5036466;28;20021;-72
2023/01/05 01:16:53;;;;;;;0.40;0.40;;;;;;;;;;5036411;28;20025;-72
2023/01/05 01:19:20;;;;;;;0.20;0.20;;;;;;;;;;5054022;28;20468;-72
2023/01/05 01:21:46;;;;;;;0.10;0.10;;;;;;;;;;5036211;28;20024;-71
2023/01/05 01:24:16;;;;;;;0.25;0.25;;;;;;;;;;5019765;28;20021;-73
2023/01/05 01:26:42;;;;;;;0.40;0.40;;;;;;;;;;5035909;28;20021;-72
2023/01/05 01:29:08;;;;;;;1.40;1.33;;;;;;;;;;5036096;28;20035;-72
2023/01/05 01:31:34;;;;;;;2.67;2.40;;;;;;;;;;5036222;28;20456;-71
2023/01/05 01:33:59;;;;;;;0.20;0.20;;;;;;;;;;5036060;28;20029;-72
2023/01/05 01:36:25;;;;;;;0.15;0.15;;;;;;;;;;5053787;28;20082;-71
2023/01/05 01:38:50;;;;;;;0.40;0.40;;;;;;;;;;5053505;28;20056;-72
2023/01/05 01:41:16;;;;;;;4.15;3.85;;;;;;;;;;5052190;28;20738;-72
2023/01/05 01:43:49;;;;;;;0.25;0.25;;;;;;;;;;5053829;28;20113;-73
2023/01/05 01:46:18;;;;;;;0.65;0.65;;;;;;;;;;5035956;28;20373;-73
2023/01/05 01:48:50;;;;;;;3.53;3.30;;;;;;;;;;5035685;28;20461;-73
2023/01/05 01:51:43;;;;;;;0.30;0.30;;;;;;;;;;5035678;28;20461;-72
2023/01/05 01:54:11;;;;;;;0.20;0.20;;;;;;;;;;5050869;28;20028;-73
2023/01/05 01:56:40;;;;;;;0.60;0.60;;;;;;;;;;5053367;28;20388;-72
2023/01/05 01:59:05;;;;;;;0.85;0.85;;;;;;;;;;5035605;28;20053;-73
2023/01/05 02:01:31;;;;;;;1.38;1.35;;;;;;;;;;5053515;28;20471;-73
2023/01/05 02:03:57;;;;;;;1.75;1.10;;;;;;;;;;5035358;28;20052;-73
2023/01/05 02:06:23;;;;;;;1.17;1.17;;;;;;;;;;5019138;28;20120;-73
2023/01/05 02:08:48;;;;;;;0.10;0.10;;;;;;;;;;5053388;28;20029;-73
2023/01/05 02:11:33;;;;;;;0.20;0.20;;;;;;;;;;5035677;28;20020;-73
2023/01/05 02:14:07;;;;;;;10.63;7.03;;;;;;;;;;5035479;28;20483;-72
2023/01/05 02:16:42;;;;;;;0.13;0.13;;;;;;;;;;5035001;28;20071;-72
2023/01/05 02:19:29;;;;;;;0.63;0.63;;;;;;;;;;5024009;28;20377;-73
2023/01/05 02:22:05;;;;;;;0.40;0.40;;;;;;;;;;5012501;28;20040;-71
2023/01/05 02:24:31;;;;;;;0.10;0.10;;;;;;;;;;5015623;28;20025;-72
2023/01/05 02:26:59;;;;;;;0.20;0.20;;;;;;;;;;5033113;28;20445;-72
2023/01/05 02:29:46;;;;;;;0.10;0.10;;;;;;;;;;5015360;28;20498;-72
2023/01/05 02:32:17;;;;;;;0.10;0.10;;;;;;;;;;5033340;28;20029;-72
2023/01/05 02:35:05;;;;;;;0.20;0.20;;;;;;;;;;5015581;28;20025;-71
2023/01/05 02:37:30;;;;;;;0.20;0.20;;;;;;;;;;5032979;28;20030;-72
2023/01/05 02:39:58;;;;;;;0.40;0.40;;;;;;;;;;5015582;28;20554;-71
2023/01/05 02:42:25;;;;;;;0.40;0.40;;;;;;;;;;5015616;28;20516;-71
2023/01/05 02:44:51;;;;;;;0.20;0.20;;;;;;;;;;5015490;28;20016;-72
2023/01/05 02:47:28;;;;;;;0.22;0.22;;;;;;;;;;5033419;28;20445;-71
2023/01/05 02:49:58;;;;;;;0.10;0.10;;;;;;;;;;5015231;28;20037;-71
2023/01/05 02:52:24;;;;;;;1.15;1.10;;;;;;;;;;5015124;28;20029;-71
2023/01/05 02:54:52;;;;;;;0.20;0.20;;;;;;;;;;5033159;28;20067;-71
2023/01/05 02:57:45;;;;;;;0.30;0.30;;;;;;;;;;5015520;28;20025;-72
2023/01/05 03:00:15;;;;;;;3.67;1.35;;;;;;;;;;5035749;28;20025;-72
2023/01/05 03:02:41;;;;;;;0.20;0.20;;;;;;;;;;5052318;28;20189;-72
2023/01/05 03:05:15;;;;;;;0.10;0.10;;;;;;;;;;5035205;28;20428;-72
2023/01/05 03:07:42;;;;;;;0.13;0.13;;;;;;;;;;5034848;28;20025;-72
2023/01/05 03:15:42;;;;;;;0.28;0.28;;;;;;;;;;5035111;28;20067;-72
2023/01/05 03:18:12;;;;;;;0.20;0.20;;;;;;;;;;5052831;28;20029;-72
2023/01/05 03:20:43;;;;;;;0.40;0.40;;;;;;;;;;5034922;28;20017;-72
2023/01/05 03:37:29;;;;;;;0.20;0.20;;;;;;;;;;5038380;28;20052;-72
2023/01/05 03:39:54;;;;;;;0.20;0.20;;;;;;;;;;5037797;28;20488;-72
2023/01/05 03:42:21;;;;;;;0.40;0.40;;;;;;;;;;5055785;28;20071;-72
2023/01/05 03:44:47;;;;;;;0.40;0.40;;;;;;;;;;5038236;28;20111;-72
2023/01/05 03:47:15;;;;;;;0.30;0.30;;;;;;;;;;5038209;28;20017;-71
2023/01/05 03:49:43;;;;;;;0.15;0.15;;;;;;;;;;5037867;28;20044;-71
2023/01/05 03:52:08;;;;;;;0.10;0.10;;;;;;;;;;5055903;28;20025;-71
2023/01/05 03:54:35;;;;;;;0.30;0.30;;;;;;;;;;5037897;28;20021;-71
2023/01/05 03:57:02;;;;;;;3.83;2.60;;;;;;;;;;5037649;28;20024;-72
2023/01/05 03:59:28;;;;;;;0.10;0.10;;;;;;;;;;5055802;28;20028;-72
2023/01/05 04:01:53;;;;;;;2.17;2.08;;;;;;;;;;5053795;28;20025;-73
2023/01/05 04:04:19;;;;;;;0.20;0.20;;;;;;;;;;5032712;28;20029;-72
2023/01/05 04:06:44;;;;;;;1.10;1.10;;;;;;;;;;5033905;28;20025;-72
2023/01/05 04:09:12;;;;;;;1.35;1.25;;;;;;;;;;5033824;28;20083;-72
2023/01/05 04:11:40;;;;;;;0.20;0.20;;;;;;;;;;5033440;28;20025;-73
2023/01/05 04:14:06;;;;;;;0.10;0.10;;;;;;;;;;5034165;28;20029;-73
2023/01/05 04:16:36;;;;;;;0.30;0.30;;;;;;;;;;5033806;28;20017;-72
2023/01/05 04:19:13;;;;;;;1.85;1.65;;;;;;;;;;5050372;28;20493;-72
2023/01/05 04:21:39;;;;;;;0.30;0.30;;;;;;;;;;5049857;28;20122;-73
2023/01/05 04:24:06;;;;;;;0.50;0.50;;;;;;;;;;5033434;28;20021;-72
2023/01/05 04:26:34;;;;;;;3.30;3.00;;;;;;;;;;5033531;28;20029;-71
2023/01/05 04:29:00;;;;;;;0.20;0.20;;;;;;;;;;5033389;28;20033;-71
2023/01/05 04:31:26;;;;;;;1.65;1.55;;;;;;;;;;5017073;28;20017;-73
2023/01/05 04:33:54;;;;;;;0.10;0.10;;;;;;;;;;5033376;28;20063;-72
2023/01/05 04:36:21;;;;;;;0.25;0.20;;;;;;;;;;5033366;28;20027;-71
2023/01/05 04:38:47;;;;;;;1.40;1.30;;;;;;;;;;5033114;28;20123;-72
2023/01/05 04:41:13;;;;;;;0.20;0.20;;;;;;;;;;5033118;28;20033;-72
2023/01/05 04:43:41;;;;;;;0.60;0.57;;;;;;;;;;5032838;28;20020;-72
2023/01/05 04:46:08;;;;;;;5.10;3.83;;;;;;;;;;5049835;28;20887;-70
2023/01/05 04:48:35;;;;;;;3.13;2.30;;;;;;;;;;5032803;28;20486;-71
2023/01/05 04:51:02;;;;;;;0.10;0.10;;;;;;;;;;5049429;28;20091;-71
2023/01/05 04:53:32;;;;;;;0.40;0.40;;;;;;;;;;5050789;28;20025;-71
2023/01/05 04:55:58;;;;;;;10.23;1.85;;;;;;;;;;5032759;28;20398;-72
2023/01/05 04:58:24;;;;;;;0.20;0.20;;;;;;;;;;5049248;28;20028;-72
2023/01/05 05:00:52;;;;;;;0.10;0.10;;;;;;;;;;5032678;28;20449;-72
2023/01/05 05:03:19;;;;;;;1.35;1.20;;;;;;;;;;5050911;28;20025;-71
2023/01/05 05:05:46;;;;;;;0.20;0.20;;;;;;;;;;5032154;28;20460;-71
2023/01/05 05:08:13;;;;;;;0.98;0.90;;;;;;;;;;5032534;28;20017;-71
2023/01/05 05:10:39;;;;;;;2.08;1.95;;;;;;;;;;5032640;28;20043;-71
2023/01/05 05:13:04;;;;;;;0.20;0.20;;;;;;;;;;5032832;28;20028;-71
2023/01/05 05:15:30;;;;;;;0.17;0.17;;;;;;;;;;5050699;28;20036;-71
2023/01/05 05:17:56;;;;;;;0.20;0.20;;;;;;;;;;5032392;28;20028;-71
2023/01/05 05:20:22;;;;;;;0.25;0.25;;;;;;;;;;5050243;28;20456;-71
2023/01/05 05:22:48;;;;;;;0.10;0.10;;;;;;;;;;5032200;28;20021;-71
2023/01/05 05:25:16;;;;;;;4.63;4.18;;;;;;;;;;5032584;28;20127;-71
2023/01/05 05:27:45;;;;;;;0.57;0.57;;;;;;;;;;5032247;28;20529;-73
2023/01/05 05:30:11;;;;;;;49.70;15.80;;;;;;;;;;5032646;28;20033;-72
2023/01/05 05:32:36;;;;;;;0.32;0.32;;;;;;;;;;5049821;28;20028;-71
2023/01/05 05:35:02;;;;;;;0.20;0.20;;;;;;;;;;5050220;28;20036;-71
2023/01/05 05:37:27;;;;;;;0.20;0.20;;;;;;;;;;5049776;28;20381;-71
2023/01/05 05:39:52;;;;;;;0.73;0.73;;;;;;;;;;5049720;28;20546;-72
2023/01/05 05:42:18;;;;;;;1.02;0.75;;;;;;;;;;5050027;28;20456;-71
2023/01/05 05:44:43;;;;;;;0.47;0.47;;;;;;;;;;5049843;28;20626;-71
2023/01/05 05:47:09;;;;;;;0.38;0.38;;;;;;;;;;5049885;28;20029;-71
2023/01/05 05:49:34;;;;;;;0.40;0.40;;;;;;;;;;5032155;28;20110;-71
2023/01/05 05:51:59;;;;;;;0.30;0.30;;;;;;;;;;5048987;28;20033;-71
2023/01/05 05:54:25;;;;;;;1.67;1.60;;;;;;;;;;5048512;28;20032;-72
2023/01/05 05:56:50;;;;;;;0.25;0.25;;;;;;;;;;5030015;28;20025;-73
2023/01/05 05:59:16;;;;;;;0.20;0.20;;;;;;;;;;5037484;28;20021;-73
2023/01/05 06:01:41;;;;;;;0.10;0.10;;;;;;;;;;5017057;28;20517;-73
2023/01/05 06:04:07;;;;;;;0.10;0.10;;;;;;;;;;5028335;28;20052;-73
2023/01/05 06:06:32;;;;;;;0.17;0.17;;;;;;;;;;5029201;28;20032;-72
2023/01/05 06:08:57;;;;;;;0.88;0.88;;;;;;;;;;5028487;28;20021;-72
2023/01/05 06:11:23;;;;;;;0.10;0.10;;;;;;;;;;5028918;28;20022;-73
2023/01/05 06:13:48;;;;;;;0.20;0.20;;;;;;;;;;5028838;28;20049;-72
2023/01/05 06:16:14;;;;;;;3.13;2.75;;;;;;;;;;5028733;28;20029;-71
2023/01/05 06:18:39;;;;;;;0.10;0.10;;;;;;;;;;5028276;28;20030;-72
2023/01/05 06:21:05;;;;;;;1.20;1.15;;;;;;;;;;5010808;28;20425;-73
2023/01/05 06:23:31;;;;;;;0.20;0.20;;;;;;;;;;5027183;28;20028;-72
2023/01/05 06:25:56;;;;;;;9.05;5.30;;;;;;;;;;5011350;28;20518;-72
2023/01/05 06:28:22;;;;;;;12.52;9.32;;;;;;;;;;5029016;28;20017;-72
2023/01/05 06:30:47;;;;;;;0.20;0.20;;;;;;;;;;4994186;28;20048;-71
2023/01/05 06:33:12;;;;;;;0.10;0.10;;;;;;;;;;5028087;28;20025;-75
2023/01/05 06:35:38;;;;;;;0.13;0.13;;;;;;;;;;5011879;28;20032;-73
2023/01/05 06:38:04;;;;;;;0.10;0.10;;;;;;;;;;5028667;28;20408;-73
2023/01/05 06:40:29;;;;;;;0.45;0.43;;;;;;;;;;5027561;28;20026;-74
2023/01/05 06:42:55;;;;;;;0.10;0.10;;;;;;;;;;5028237;28;20021;-73
2023/01/05 06:45:20;;;;;;;0.28;0.28;;;;;;;;;;5029083;28;20033;-72
2023/01/05 06:47:45;;;;;;;0.10;0.10;;;;;;;;;;5028903;28;20026;-73
2023/01/05 06:50:11;;;;;;;0.63;0.63;;;;;;;;;;5028258;28;20104;-73
2023/01/05 06:52:38;;;;;;;0.75;0.73;;;;;;;;;;5028380;28;20019;-73
2023/01/05 06:55:11;;;;;;;0.20;0.20;;;;;;;;;;5027823;28;20025;-73
2023/01/05 06:57:36;;;;;;;0.60;0.60;;;;;;;;;;5010573;28;20499;-74
2023/01/05 07:00:06;;;;;;;0.10;0.10;;;;;;;;;;5028545;28;20037;-72
2023/01/05 07:02:31;;;;;;;0.20;0.20;;;;;;;;;;5028032;28;20021;-74
2023/01/05 07:04:57;;;;;;;0.10;0.10;;;;;;;;;;5031488;28;20033;-71
2023/01/05 07:07:22;;;;;;;2.28;2.15;;;;;;;;;;5031962;28;20084;-73
2023/01/05 07:09:48;;;;;;;0.10;0.10;;;;;;;;;;5031781;28;20048;-71
2023/01/05 07:12:14;;;;;;;3.95;3.30;;;;;;;;;;5032764;28;20060;-72
2023/01/05 07:14:39;;;;;;;0.10;0.10;;;;;;;;;;5031479;28;20450;-73
2023/01/05 07:17:04;;;;;;;1.10;1.10;;;;;;;;;;5032854;28;20017;-70
2023/01/05 07:19:30;;;;;;;5.95;5.47;;;;;;;;;;5032754;28;20079;-70
2023/01/05 07:21:56;;;;;;;0.10;0.10;;;;;;;;;;5032227;28;20021;-71
2023/01/05 07:24:22;;;;;;;0.40;0.40;;;;;;;;;;5031553;28;20028;-70
2023/01/05 07:26:47;;;;;;;1.13;1.08;;;;;;;;;;5032270;28;20021;-71
2023/01/05 07:29:13;;;;;;;0.25;0.25;;;;;;;;;;5032366;28;20107;-70
2023/01/05 07:31:38;;;;;;;0.30;0.30;;;;;;;;;;5031654;28;20453;-71
2023/01/05 07:34:04;;;;;;;2.58;1.60;;;;;;;;;;5014810;28;20044;-71
2023/01/05 07:36:29;;;;;;;0.10;0.10;;;;;;;;;;5031781;28;20334;-70
2023/01/05 07:38:55;;;;;;;0.30;0.30;;;;;;;;;;5031335;28;20045;-70
2023/01/05 07:41:20;;;;;;;1.25;1.20;;;;;;;;;;5031554;28;20030;-70
2023/01/05 07:43:49;;;;;;;0.30;0.30;;;;;;;;;;5030986;28;20021;-71
2023/01/05 07:46:14;;;;;;;0.13;0.13;;;;;;;;;;5030883;28;20028;-70
2023/01/05 07:48:40;;;;;;;0.38;0.38;;;;;;;;;;5030748;28;20453;-70
2023/01/05 07:51:06;;;;;;;0.38;0.38;;;;;;;;;;5031540;28;20083;-70
2023/01/05 07:53:33;;;;;;;0.20;0.20;;;;;;;;;;5031509;28;20021;-70
2023/01/05 07:55:59;;;;;;;0.10;0.10;;;;;;;;;;5031760;28;20492;-70
2023/01/05 07:58:25;;;;;;;5.07;4.75;;;;;;;;;;5013916;28;20025;-72
2023/01/05 08:00:51;;;;;;;0.10;0.10;;;;;;;;;;5031821;28;20013;-71
2023/01/05 08:03:16;;;;;;;0.20;0.20;;;;;;;;;;5031635;28;20104;-72
2023/01/05 08:05:42;;;;;;;0.10;0.10;;;;;;;;;;5030462;28;20025;-71
2023/01/05 08:08:07;;;;;;;0.10;0.10;;;;;;;;;;5031221;28;20025;-71
2023/01/05 08:10:32;;;;;;;0.57;0.57;;;;;;;;;;5031332;28;20121;-71
2023/01/05 08:15:52;;;;;;;0.52;0.52;;;;;;;;;;5013801;28;20034;-71
2023/01/05 08:18:18;;;;;;;2.60;2.42;;;;;;;;;;5013792;28;20022;-71
2023/01/05 08:20:48;;;;;;;12.13;4.50;;;;;;;;;;5031928;28;20103;-72
2023/01/05 08:23:14;;;;;;;8.75;3.83;;;;;;;;;;5032223;28;20036;-72
2023/01/05 08:25:39;;;;;;;2.75;2.10;;;;;;;;;;5031498;28;20018;-72
2023/01/05 08:28:05;;;;;;;0.30;0.30;;;;;;;;;;5031384;28;20048;-71
2023/01/05 08:30:30;;;;;;;6.28;4.18;;;;;;;;;;5013700;28;20025;-71
2023/01/05 08:32:56;;;;;;;4.43;3.55;;;;;;;;;;5031037;28;20034;-71
2023/01/05 08:35:21;;;;;;;2.78;2.45;;;;;;;;;;5030867;28;20132;-71
2023/01/05 08:37:47;;;;;;;5.95;3.08;;;;;;;;;;5030638;28;20037;-70
2023/01/05 08:40:12;;;;;;;4.45;2.67;;;;;;;;;;5031265;28;20527;-71
2023/01/05 08:42:38;;;;;;;0.63;0.35;;;;;;;;;;5031032;28;20030;-71
2023/01/05 08:45:03;;;;;;;3.90;3.70;;;;;;;;;;5031068;28;20026;-72
2023/01/05 08:47:29;;;;;;;3.50;3.05;;;;;;;;;;5030969;28;20029;-72
2023/01/05 08:49:55;;;;;;;1.92;1.73;;;;;;;;;;5030914;28;20025;-71
2023/01/05 08:52:22;;;;;;;1.90;1.30;;;;;;;;;;5030426;28;20013;-75
2023/01/05 08:54:47;;;;;;;39.53;4.97;;;;;;;;;;5029771;28;20535;-75
2023/01/05 08:57:13;;;;;;;1.70;1.58;;;;;;;;;;5030843;28;20034;-75
2023/01/05 08:59:39;;;;;;;2.17;2.08;;;;;;;;;;5037107;28;20017;-77
2023/01/05 09:02:05;;;;;;;0.25;0.20;;;;;;;;;;5028497;28;20025;-75
2023/01/05 09:04:30;;;;;;;1.13;1.02;;;;;;;;;;5012355;28;20409;-74
2023/01/05 09:06:56;;;;;;;1.42;0.60;;;;;;;;;;5030163;28;20033;-74
2023/01/05 09:09:23;;;;;;;0.20;0.20;;;;;;;;;;5030652;28;20035;-73
2023/01/05 09:11:48;;;;;;;1.85;1.58;;;;;;;;;;5029891;28;20029;-72
2023/01/05 09:14:14;;;;;;;4.03;0.90;;;;;;;;;;5028668;28;20072;-74
2023/01/05 09:16:40;;;;;;;6.13;3.95;;;;;;;;;;5034301;28;20056;-74
2023/01/05 09:19:05;;;;;;;3.65;2.80;;;;;;;;;;5029620;28;20400;-74
2023/01/05 09:21:31;;;;;;;0.10;0.10;;;;;;;;;;5029739;28;20044;-74
2023/01/05 09:23:56;;;;;;;0.10;0.10;;;;;;;;;;5012556;28;20021;-75
2023/01/05 09:26:22;;;;;;;0.10;0.10;;;;;;;;;;5029273;28;20128;-75
2023/01/05 09:28:47;;;;;;;0.13;0.13;;;;;;;;;;5030215;28;20487;-73
2023/01/05 09:31:19;;;;;;;0.20;0.20;;;;;;;;;;5030117;28;20034;-73
2023/01/05 09:33:45;;;;;;;0.10;0.10;;;;;;;;;;5011892;28;20071;-75
2023/01/05 09:36:11;;;;;;;0.10;0.10;;;;;;;;;;5012606;28;20033;-74
2023/01/05 09:38:37;;;;;;;0.35;0.35;;;;;;;;;;5029883;28;20042;-74
2023/01/05 09:41:06;;;;;;;0.17;0.17;;;;;;;;;;5029313;28;20045;-72
2023/01/05 09:43:35;;;;;;;0.10;0.10;;;;;;;;;;5029163;28;20065;-73
2023/01/05 09:46:02;;;;;;;0.77;0.60;;;;;;;;;;5029355;28;20014;-73
2023/01/05 09:48:30;;;;;;;0.10;0.10;;;;;;;;;;5047009;28;20028;-70
2023/01/05 09:50:56;;;;;;;0.20;0.20;;;;;;;;;;5032534;28;20404;-75
2023/01/05 09:53:24;;;;;;;0.52;0.52;;;;;;;;;;5029812;28;20029;-75
2023/01/05 09:55:50;;;;;;;1.10;1.03;;;;;;;;;;5029628;28;20075;-74
2023/01/05 09:58:25;;;;;;;0.20;0.20;;;;;;;;;;5029817;28;20108;-75
2023/01/05 10:01:17;;;;;;;0.10;0.10;;;;;;;;;;5028108;28;20025;-74
2023/01/05 10:03:46;;;;;;;0.28;0.28;;;;;;;;;;5033496;28;20033;-76
2023/01/05 10:06:13;;;;;;;0.20;0.20;;;;;;;;;;5050299;28;20044;-75
2023/01/05 10:08:41;;;;;;;0.47;0.40;;;;;;;;;;5049713;28;20025;-76
2023/01/05 10:14:03;;;;;;;0.65;0.65;;;;;;;;;;5049430;28;20471;-76
2023/01/05 10:16:30;;;;;;;0.30;0.30;;;;;;;;;;5049795;28;20021;-76
2023/01/05 10:18:56;;;;;;;0.20;0.20;;;;;;;;;;5034476;28;20384;-77
2023/01/05 10:21:32;;;;;;;0.20;0.20;;;;;;;;;;5044415;28;20017;-77
2023/01/05 10:23:57;;;;;;;0.50;0.50;;;;;;;;;;5036825;28;20429;-76
2023/01/05 10:26:25;;;;;;;5.10;2.67;;;;;;;;;;5049628;28;20143;-76
2023/01/05 10:28:58;;;;;;;3.05;1.25;;;;;;;;;;5039219;28;20125;-74
2023/01/05 10:31:33;;;;;;;0.20;0.20;;;;;;;;;;5028097;28;20269;-76
2023/01/05 10:34:16;;;;;;;1.10;0.63;;;;;;;;;;5032901;28;20033;-75
2023/01/05 10:36:48;;;;;;;0.13;0.13;;;;;;;;;;5025698;28;20503;-76
2023/01/05 10:39:20;;;;;;;1.23;1.05;;;;;;;;;;5030559;28;20033;-76
2023/01/05 10:41:54;;;;;;;0.98;0.73;;;;;;;;;;5031019;28;20017;-76
2023/01/05 10:44:31;;;;;;;1.45;1.17;;;;;;;;;;5031184;28;20022;-75
2023/01/05 10:46:56;;;;;;;0.13;0.13;;;;;;;;;;5033375;28;20373;-75
2023/01/05 10:49:24;;;;;;;1.55;1.15;;;;;;;;;;5031405;28;20051;-75
2023/01/05 10:51:51;;;;;;;0.20;0.20;;;;;;;;;;5031078;28;20021;-75
2023/01/05 10:54:30;;;;;;;0.22;0.22;;;;;;;;;;5031312;28;20380;-77
2023/01/05 10:57:16;;;;;;;0.20;0.20;;;;;;;;;;5031271;28;20472;-75
2023/01/05 10:59:55;;;;;;;0.30;0.30;;;;;;;;;;5030777;28;20036;-74
2023/01/05 11:02:20;;;;;;;0.20;0.20;;;;;;;;;;5030904;28;20465;-76
2023/01/05 11:04:47;;;;;;;0.95;0.65;;;;;;;;;;5033043;28;20033;-75
2023/01/05 11:07:12;;;;;;;4.68;2.45;;;;;;;;;;5033072;28;20036;-77
2023/01/05 11:09:38;;;;;;;0.55;0.55;;;;;;;;;;5032671;28;20041;-74
2023/01/05 11:12:04;;;;;;;0.30;0.30;;;;;;;;;;5032840;28;20028;-77
2023/01/05 11:14:37;;;;;;;4.07;2.28;;;;;;;;;;5033234;28;20380;-76
2023/01/05 11:17:04;;;;;;;0.85;0.60;;;;;;;;;;5033166;28;20029;-76
2023/01/05 11:19:31;;;;;;;2.22;1.65;;;;;;;;;;5032902;28;20083;-76
2023/01/05 11:21:56;;;;;;;0.80;0.77;;;;;;;;;;5032733;28;20032;-75
2023/01/05 11:24:22;;;;;;;1.17;0.85;;;;;;;;;;5032559;28;20029;-75
2023/01/05 11:26:49;;;;;;;3.97;2.58;;;;;;;;;;5032877;28;20083;-75
2023/01/05 11:29:15;;;;;;;5.00;2.78;;;;;;;;;;5032498;28;20030;-75
2023/01/05 11:31:44;;;;;;;6.57;6.03;;;;;;;;;;5032194;28;20009;-75
2023/01/05 11:34:15;;;;;;;0.40;0.32;;;;;;;;;;5032631;28;20025;-76
2023/01/05 11:36:41;;;;;;;1.98;1.85;;;;;;;;;;5032371;28;20369;-75
2023/01/05 11:39:14;;;;;;;0.20;0.20;;;;;;;;;;5031820;28;20052;-76
2023/01/05 11:41:40;;;;;;;0.30;0.30;;;;;;;;;;5032303;28;20057;-75
2023/01/05 11:44:06;;;;;;;0.60;0.60;;;;;;;;;;5032674;28;20396;-76
2023/01/05 11:46:41;;;;;;;0.20;0.20;;;;;;;;;;5032145;28;20025;-76
2023/01/05 11:49:07;;;;;;;0.30;0.30;;;;;;;;;;5031834;28;20037;-76
2023/01/05 11:51:33;;;;;;;0.20;0.20;;;;;;;;;;5031714;28;20025;-76
2023/01/05 11:53:59;;;;;;;3.33;2.92;;;;;;;;;;5031896;28;20029;-75
2023/01/05 11:56:25;;;;;;;1.27;1.05;;;;;;;;;;5032219;28;20027;-75
2023/01/05 11:58:56;;;;;;;3.92;1.80;;;;;;;;;;5031877;28;20021;-75
2023/01/05 12:01:40;;;;;;;0.65;0.60;;;;;;;;;;5031940;28;20120;-75
2023/01/05 12:04:12;;;;;;;0.25;0.25;;;;;;;;;;5031659;28;20021;-74
2023/01/05 12:06:40;;;;;;;0.20;0.20;;;;;;;;;;5031779;28;20536;-75
2023/01/05 12:09:15;;;;;;;0.30;0.30;;;;;;;;;;5031647;28;20072;-75
2023/01/05 12:11:51;;;;;;;0.20;0.20;;;;;;;;;;5031931;28;20032;-75
2023/01/05 12:14:24;;;;;;;0.20;0.20;;;;;;;;;;5031669;28;20026;-75
2023/01/05 12:16:54;;;;;;;0.20;0.20;;;;;;;;;;5031656;28;20047;-76
2023/01/05 12:19:38;;;;;;;0.47;0.47;;;;;;;;;;5031890;28;20036;-75
2023/01/05 12:22:19;;;;;;;0.20;0.20;;;;;;;;;;5031433;28;20144;-77
2023/01/05 12:25:11;;;;;;;0.95;0.55;;;;;;;;;;5031640;28;20026;-77
2023/01/05 12:27:55;;;;;;;0.20;0.20;;;;;;;;;;5028331;28;20088;-78
2023/01/05 12:30:21;;;;;;;0.95;0.77;;;;;;;;;;5031402;28;20105;-76
2023/01/05 12:32:46;;;;;;;0.32;0.30;;;;;;;;;;5031534;28;20524;-77
2023/01/05 12:35:11;;;;;;;0.50;0.50;;;;;;;;;;5031297;28;20029;-76
2023/01/05 12:37:56;;;;;;;0.82;0.65;;;;;;;;;;5030876;28;20369;-75
2023/01/05 12:40:21;;;;;;;0.75;0.75;;;;;;;;;;5031910;28;20033;-78
2023/01/05 12:43:07;;;;;;;0.38;0.38;;;;;;;;;;5031354;28;20029;-77
2023/01/05 12:45:52;;;;;;;0.20;0.20;;;;;;;;;;5031408;28;20036;-78
2023/01/05 12:48:40;;;;;;;0.10;0.10;;;;;;;;;;5031266;28;20052;-77
2023/01/05 12:51:15;;;;;;;0.10;0.10;;;;;;;;;;5023703;28;20469;-77
2023/01/05 12:53:50;;;;;;;1.05;1.05;;;;;;;;;;5030817;28;20368;-76
2023/01/05 12:56:22;;;;;;;0.55;0.52;;;;;;;;;;5030963;28;20072;-76
2023/01/05 12:58:50;;;;;;;0.30;0.30;;;;;;;;;;5030660;28;20661;-77
2023/01/05 13:01:18;;;;;;;0.20;0.20;;;;;;;;;;5029917;28;20060;-77
2023/01/05 13:03:48;;;;;;;5.78;0.95;;;;;;;;;;5030421;28;20369;-77
2023/01/05 13:06:19;;;;;;;0.28;0.28;;;;;;;;;;5030807;28;20048;-78
2023/01/05 13:08:58;;;;;;;0.20;0.20;;;;;;;;;;5030704;28;20021;-76
2023/01/05 13:11:26;;;;;;;0.20;0.20;;;;;;;;;;5012815;28;20488;-77
2023/01/05 13:13:54;;;;;;;0.30;0.30;;;;;;;;;;5030234;28;20429;-76
2023/01/05 13:16:21;;;;;;;0.32;0.32;;;;;;;;;;5031069;28;20101;-77
2023/01/05 13:18:53;;;;;;;0.20;0.20;;;;;;;;;;5012707;28;20029;-77
2023/01/05 13:21:20;;;;;;;0.40;0.40;;;;;;;;;;5029518;28;20039;-78
2023/01/05 13:23:57;;;;;;;0.52;0.47;;;;;;;;;;5028789;28;20026;-78
2023/01/05 13:26:23;;;;;;;0.98;0.98;;;;;;;;;;5029425;28;20153;-77
2023/01/05 13:28:50;;;;;;;0.20;0.20;;;;;;;;;;5030520;28;20017;-77
2023/01/05 13:31:27;;;;;;;0.10;0.10;;;;;;;;;;5030614;28;20037;-74
2023/01/05 13:34:16;;;;;;;0.10;0.10;;;;;;;;;;5029827;28;20048;-77
2023/01/05 13:36:58;;;;;;;0.20;0.20;;;;;;;;;;5022166;28;20113;-77
2023/01/05 13:39:23;;;;;;;0.15;0.15;;;;;;;;;;5030036;28;20045;-77
2023/01/05 13:42:08;;;;;;;0.15;0.15;;;;;;;;;;5029710;28;20029;-77
2023/01/05 13:44:39;;;;;;;0.47;0.47;;;;;;;;;;5030203;28;20131;-77
2023/01/05 13:47:23;;;;;;;0.10;0.10;;;;;;;;;;5030387;28;20062;-78
2023/01/05 13:50:00;;;;;;;0.20;0.20;;;;;;;;;;5030065;28;20722;-77
2023/01/05 13:52:34;;;;;;;0.20;0.20;;;;;;;;;;5030333;28;20059;-75
2023/01/05 13:55:02;;;;;;;0.10;0.10;;;;;;;;;;5029620;28;20091;-75
2023/01/05 13:57:36;;;;;;;1.50;1.38;;;;;;;;;;5030428;28;20022;-79
2023/01/05 14:00:06;;;;;;;0.20;0.20;;;;;;;;;;5029488;28;20036;-77
2023/01/05 14:02:38;;;;;;;0.20;0.20;;;;;;;;;;5029871;28;20036;-78
2023/01/05 14:05:06;;;;;;;0.20;0.20;;;;;;;;;;5029429;28;20484;-78
2023/01/05 14:07:32;;;;;;;0.10;0.10;;;;;;;;;;5029355;28;20453;-77
2023/01/05 14:09:57;;;;;;;0.10;0.10;;;;;;;;;;5029330;28;20043;-77
2023/01/05 14:12:25;;;;;;;0.10;0.10;;;;;;;;;;5029698;28;20022;-77
2023/01/05 14:14:56;;;;;;;0.22;0.22;;;;;;;;;;5031374;28;20487;-77
2023/01/05 14:17:40;;;;;;;0.10;0.10;;;;;;;;;;5031018;28;20028;-75
2023/01/05 14:20:26;;;;;;;0.10;0.10;;;;;;;;;;5049267;28;20107;-75
2023/01/05 14:22:51;;;;;;;0.10;0.10;;;;;;;;;;5039323;28;20021;-77
2023/01/05 14:25:35;;;;;;;0.10;0.10;;;;;;;;;;5031368;28;20017;-75
2023/01/05 14:28:19;;;;;;;0.13;0.13;;;;;;;;;;5032749;28;20028;-77
2023/01/05 14:30:44;;;;;;;0.10;0.10;;;;;;;;;;5035875;28;20046;-78
2023/01/05 14:33:10;;;;;;;0.10;0.10;;;;;;;;;;5046999;28;20099;-77
2023/01/05 14:35:36;;;;;;;0.10;0.10;;;;;;;;;;5048013;28;20040;-77
2023/01/05 14:38:13;;;;;;;1.33;1.10;;;;;;;;;;5049022;28;20041;-77
2023/01/05 14:40:48;;;;;;;0.68;0.68;;;;;;;;;;5049403;28;20059;-77
2023/01/05 14:43:26;;;;;;;0.10;0.10;;;;;;;;;;5049472;28;20025;-77
2023/01/05 14:46:00;;;;;;;0.10;0.10;;;;;;;;;;5049827;28;20364;-77
2023/01/05 14:48:28;;;;;;;0.10;0.10;;;;;;;;;;5047908;28;20029;-76
2023/01/05 14:51:12;;;;;;;1.10;1.10;;;;;;;;;;5047160;28;20036;-77
2023/01/05 14:53:39;;;;;;;0.20;0.20;;;;;;;;;;5047040;28;20143;-76
2023/01/05 14:56:07;;;;;;;0.20;0.20;;;;;;;;;;5046909;28;20028;-77
2023/01/05 14:58:40;;;;;;;0.10;0.10;;;;;;;;;;5047110;28;20013;-75
2023/01/05 15:01:15;;;;;;;0.10;0.10;;;;;;;;;;5047173;28;20480;-77
2023/01/05 15:03:49;;;;;;;0.10;0.10;;;;;;;;;;5048002;28;20415;-74
2023/01/05 15:06:18;;;;;;;0.10;0.10;;;;;;;;;;5047722;28;20040;-77
2023/01/05 15:09:03;;;;;;;1.00;1.00;;;;;;;;;;5048663;28;20017;-77
2023/01/05 15:11:40;;;;;;;2.90;1.25;;;;;;;;;;5049218;28;20461;-77
2023/01/05 15:14:33;;;;;;;2.08;0.77;;;;;;;;;;5044631;28;20101;-77
2023/01/05 15:17:17;;;;;;;10.73;2.25;;;;;;;;;;4996181;28;20121;-77
2023/01/05 15:19:43;;;;;;;0.28;0.28;;;;;;;;;;5027335;28;20030;-77
2023/01/05 15:22:27;;;;;;;1.13;1.02;;;;;;;;;;5030886;28;20036;-78
2023/01/05 15:25:04;;;;;;;0.15;0.15;;;;;;;;;;5043568;28;20020;-78
2023/01/05 15:27:52;;;;;;;1.00;0.75;;;;;;;;;;5038577;28;20049;-77
2023/01/05 15:30:30;;;;;;;5.18;2.95;;;;;;;;;;5032390;28;20048;-77